Terminal Aerodrome Forecast
Issued by NWS

Home | Current Version | Previous Version | Text Only | Print | Product List | Glossary On
Versions: 1 2 3 4 5 6 7 8 9 10 11 12 13 14 15 16 17 18 19
000
FTUS43 KBIS 220529
TAFMOT
TAF
KMOT 220529Z 2206/2306 33009KT P6SM FEW130 SCT250
     FM221100 36010KT P6SM SCT140 BKN200
     FM221400 36013KT P6SM VCSH BKN150 BKN200
     FM221800 01017G23KT P6SM VCTS BKN060CB OVC140
     FM222100 36016G22KT P6SM VCTS OVC035CB
     FM230000 36013KT P6SM OVC020=

USA.gov is the U.S. government's official web portal to all federal, state and local government web resources and services.